Time,TemperatureF,DewpointF,PressureIn,WindDirection,WindDirectionDegrees,WindSpeedMPH,WindSpeedGustMPH,Humidity,HourlyPrecipIn,Conditions,Clouds,dailyrainin,SoftwareType,DateUTC
2013-07-20 00:00:00,72.8,71.0,29.93,SW,225,1.0,-999.0,94,0.00,,,0.11,Wunderground v.1.15,2013-07-20 04:00:00,
2013-07-20 00:05:00,72.8,71.0,29.93,SW,225,1.0,-999.0,94,0.00,,,0.11,Wunderground v.1.15,2013-07-20 04:05:00,
2013-07-20 00:10:00,72.7,70.9,29.93,WSW,248,1.0,-999.0,94,0.00,,,0.11,Wunderground v.1.15,2013-07-20 04:10:00,
2013-07-20 00:15:00,72.8,71.0,29.92,SW,225,2.0,-999.0,94,0.00,,,0.11,Wunderground v.1.15,2013-07-20 04:15:00,
2013-07-20 00:20:00,72.8,71.0,29.92,South,180,3.0,-999.0,94,0.00,,,0.11,Wunderground v.1.15,2013-07-20 04:20:00,
2013-07-20 00:25:00,72.7,70.9,29.92,SSW,203,4.0,-999.0,94,0.00,,,0.11,Wunderground v.1.15,2013-07-20 04:25:00,
2013-07-20 00:30:00,72.7,70.9,29.92,SSW,203,4.0,-999.0,94,0.00,,,0.11,Wunderground v.1.15,2013-07-20 04:30:00,
2013-07-20 00:35:00,72.7,70.9,29.92,SSW,203,4.0,-999.0,94,0.00,,,0.11,Wunderground v.1.15,2013-07-20 04:35:00,
2013-07-20 00:40:00,72.6,70.8,29.92,SSW,203,3.0,-999.0,94,0.00,,,0.11,Wunderground v.1.15,2013-07-20 04:40:00,
2013-07-20 00:45:00,72.5,70.7,29.92,SSW,203,3.0,-999.0,94,0.00,,,0.11,Wunderground v.1.15,2013-07-20 04:45:00,
2013-07-20 00:50:00,72.4,70.9,29.91,SSW,203,2.0,-999.0,95,0.00,,,0.11,Wunderground v.1.15,2013-07-20 04:50:00,
2013-07-20 00:55:00,72.3,70.8,29.91,SW,225,1.0,-999.0,95,0.00,,,0.11,Wunderground v.1.15,2013-07-20 04:55:00,
2013-07-20 01:00:00,72.2,70.7,29.91,SSW,203,2.0,-999.0,95,0.00,,,0.11,Wunderground v.1.15,2013-07-20 05:00:00,
2013-07-20 01:05:00,72.1,70.6,29.92,SW,225,2.0,-999.0,95,0.00,,,0.11,Wunderground v.1.15,2013-07-20 05:05:00,
2013-07-20 01:10:00,72.0,70.5,29.91,SSW,203,2.0,-999.0,95,0.00,,,0.11,Wunderground v.1.15,2013-07-20 05:10:00,
2013-07-20 01:15:00,72.0,70.5,29.91,SSW,203,3.0,-999.0,95,0.00,,,0.11,Wunderground v.1.15,2013-07-20 05:15:00,
2013-07-20 01:20:00,71.9,70.7,29.91,SW,225,3.0,-999.0,96,0.00,,,0.11,Wunderground v.1.15,2013-07-20 05:20:00,
2013-07-20 01:25:00,71.9,70.7,29.91,SSW,203,4.0,-999.0,96,0.00,,,0.11,Wunderground v.1.15,2013-07-20 05:25:00,
2013-07-20 01:30:00,71.9,70.7,29.90,SSW,203,4.0,-999.0,96,0.00,,,0.11,Wunderground v.1.15,2013-07-20 05:30:00,
2013-07-20 01:35:00,71.9,70.7,29.90,SW,225,4.0,-999.0,96,0.00,,,0.11,Wunderground v.1.15,2013-07-20 05:35:00,
2013-07-20 01:40:00,71.9,70.4,29.90,SSW,203,3.0,-999.0,95,0.00,,,0.11,Wunderground v.1.15,2013-07-20 05:40:00,
2013-07-20 01:45:00,71.9,70.4,29.90,SSW,203,4.0,-999.0,95,0.00,,,0.11,Wunderground v.1.15,2013-07-20 05:45:00,
2013-07-20 01:50:00,71.8,70.6,29.90,South,180,4.0,-999.0,96,0.00,,,0.11,Wunderground v.1.15,2013-07-20 05:50:00,
2013-07-20 01:55:00,71.7,70.5,29.89,SSW,203,3.0,-999.0,96,0.00,,,0.11,Wunderground v.1.15,2013-07-20 05:55:00,
2013-07-20 02:00:00,71.7,70.5,29.89,SSW,203,4.0,-999.0,96,0.00,,,0.11,Wunderground v.1.15,2013-07-20 06:00:00,
2013-07-20 02:05:00,71.6,70.4,29.89,SW,225,3.0,-999.0,96,0.00,,,0.11,Wunderground v.1.15,2013-07-20 06:05:00,
2013-07-20 02:10:00,71.6,70.4,29.88,SSW,203,4.0,-999.0,96,0.00,,,0.11,Wunderground v.1.15,2013-07-20 06:10:00,
2013-07-20 02:15:00,71.6,70.4,29.88,SSW,203,3.0,-999.0,96,0.00,,,0.11,Wunderground v.1.15,2013-07-20 06:15:00,
2013-07-20 02:20:00,71.5,70.3,29.88,SW,225,3.0,-999.0,96,0.00,,,0.11,Wunderground v.1.15,2013-07-20 06:20:00,
2013-07-20 02:25:00,71.5,70.3,29.87,SSW,203,3.0,-999.0,96,0.00,,,0.11,Wunderground v.1.15,2013-07-20 06:25:00,
2013-07-20 02:30:00,71.5,70.3,29.87,SSW,203,4.0,-999.0,96,0.00,,,0.11,Wunderground v.1.15,2013-07-20 06:30:00,
2013-07-20 02:35:00,71.5,70.3,29.87,SSW,203,4.0,-999.0,96,0.00,,,0.11,Wunderground v.1.15,2013-07-20 06:35:00,
2013-07-20 02:40:00,71.6,70.4,29.87,SSW,203,5.0,-999.0,96,0.00,,,0.11,Wunderground v.1.15,2013-07-20 06:40:00,
2013-07-20 02:45:00,71.8,70.6,29.87,SSW,203,4.0,-999.0,96,0.00,,,0.11,Wunderground v.1.15,2013-07-20 06:45:00,
2013-07-20 02:50:00,71.8,70.6,29.87,SSW,203,5.0,-999.0,96,0.00,,,0.11,Wunderground v.1.15,2013-07-20 06:50:00,
2013-07-20 02:55:00,72.0,70.5,29.87,SSW,203,5.0,-999.0,95,0.00,,,0.11,Wunderground v.1.15,2013-07-20 06:55:00,
2013-07-20 03:00:00,72.0,70.5,29.86,SSW,203,5.0,-999.0,95,0.00,,,0.11,Wunderground v.1.15,2013-07-20 07:00:00,
2013-07-20 03:05:00,72.0,70.5,29.86,SSW,203,4.0,-999.0,95,0.00,,,0.11,Wunderground v.1.15,2013-07-20 07:05:00,
2013-07-20 03:10:00,72.0,70.5,29.86,SSW,203,4.0,-999.0,95,0.00,,,0.11,Wunderground v.1.15,2013-07-20 07:10:00,
2013-07-20 03:15:00,71.9,70.4,29.86,SSW,203,5.0,-999.0,95,0.00,,,0.11,Wunderground v.1.15,2013-07-20 07:15:00,
2013-07-20 03:20:00,71.9,70.4,29.86,SSW,203,4.0,-999.0,95,0.00,,,0.11,Wunderground v.1.15,2013-07-20 07:20:00,
2013-07-20 03:25:00,71.8,70.3,29.87,SSW,203,4.0,-999.0,95,0.00,,,0.11,Wunderground v.1.15,2013-07-20 07:25:00,
2013-07-20 03:30:00,71.8,70.3,29.86,SSW,203,4.0,-999.0,95,0.00,,,0.11,Wunderground v.1.15,2013-07-20 07:30:00,
2013-07-20 03:35:00,71.8,70.3,29.86,SSW,203,4.0,-999.0,95,0.00,,,0.11,Wunderground v.1.15,2013-07-20 07:35:00,
2013-07-20 03:40:00,71.7,70.2,29.87,SSW,203,4.0,-999.0,95,0.00,,,0.11,Wunderground v.1.15,2013-07-20 07:40:00,
2013-07-20 03:45:00,71.6,70.1,29.87,SSW,203,3.0,-999.0,95,0.00,,,0.11,Wunderground v.1.15,2013-07-20 07:45:00,
2013-07-20 03:50:00,71.5,70.0,29.87,SSW,203,4.0,-999.0,95,0.00,,,0.11,Wunderground v.1.15,2013-07-20 07:50:00,
2013-07-20 03:55:00,71.5,70.3,29.87,SSW,203,4.0,-999.0,96,0.00,,,0.11,Wunderground v.1.15,2013-07-20 07:55:00,
2013-07-20 04:00:00,71.5,70.3,29.87,SSW,203,4.0,-999.0,96,0.00,,,0.11,Wunderground v.1.15,2013-07-20 08:00:00,
2013-07-20 04:05:00,71.5,70.3,29.88,SSW,203,3.0,-999.0,96,0.00,,,0.11,Wunderground v.1.15,2013-07-20 08:05:00,
2013-07-20 04:10:00,71.5,70.3,29.88,SSW,203,1.0,-999.0,96,0.00,,,0.11,Wunderground v.1.15,2013-07-20 08:10:00,
2013-07-20 04:15:00,71.4,70.2,29.88,SSW,203,1.0,-999.0,96,0.00,,,0.11,Wunderground v.1.15,2013-07-20 08:15:00,
2013-07-20 04:20:00,71.3,70.1,29.88,South,180,0.0,-999.0,96,0.00,,,0.11,Wunderground v.1.15,2013-07-20 08:20:00,
2013-07-20 04:25:00,71.2,70.0,29.88,South,180,1.0,-999.0,96,0.00,,,0.11,Wunderground v.1.15,2013-07-20 08:25:00,
2013-07-20 04:30:00,71.1,69.9,29.88,SSW,203,1.0,-999.0,96,0.00,,,0.11,Wunderground v.1.15,2013-07-20 08:30:00,
2013-07-20 04:35:00,71.0,69.8,29.88,SSW,203,0.0,-999.0,96,0.00,,,0.11,Wunderground v.1.15,2013-07-20 08:35:00,
2013-07-20 04:40:00,70.8,69.6,29.88,SSW,203,1.0,-999.0,96,0.00,,,0.11,Wunderground v.1.15,2013-07-20 08:40:00,
2013-07-20 04:45:00,70.8,69.9,29.88,SSW,203,1.0,-999.0,97,0.00,,,0.11,Wunderground v.1.15,2013-07-20 08:45:00,
2013-07-20 04:50:00,70.8,69.9,29.88,SSE,158,0.0,-999.0,97,0.00,,,0.11,Wunderground v.1.15,2013-07-20 08:50:00,
2013-07-20 04:55:00,70.7,69.8,29.88,SSE,158,0.0,-999.0,97,0.00,,,0.11,Wunderground v.1.15,2013-07-20 08:55:00,
2013-07-20 05:00:00,70.6,69.7,29.88,SSE,158,0.0,-999.0,97,0.00,,,0.11,Wunderground v.1.15,2013-07-20 09:00:00,
2013-07-20 05:05:00,70.5,69.6,29.88,N/A,-737280,0.0,-999.0,97,0.00,,,0.11,Wunderground v.1.15,2013-07-20 09:05:00,
2013-07-20 05:10:00,70.3,69.4,29.88,SSE,158,0.0,-999.0,97,0.00,,,0.11,Wunderground v.1.15,2013-07-20 09:10:00,
2013-07-20 05:15:00,70.0,69.1,29.88,N/A,-737280,0.0,-999.0,97,0.00,,,0.11,Wunderground v.1.15,2013-07-20 09:15:00,
2013-07-20 05:20:00,69.8,68.9,29.88,SSE,158,0.0,-999.0,97,0.00,,,0.11,Wunderground v.1.15,2013-07-20 09:20:00,
2013-07-20 05:25:00,69.7,68.8,29.88,N/A,-737280,0.0,-999.0,97,0.00,,,0.11,Wunderground v.1.15,2013-07-20 09:25:00,
2013-07-20 05:30:00,69.6,68.7,29.87,N/A,-737280,0.0,-999.0,97,0.00,,,0.11,Wunderground v.1.15,2013-07-20 09:30:00,
2013-07-20 05:35:00,69.5,68.6,29.87,N/A,-737280,0.0,-999.0,97,0.00,,,0.11,Wunderground v.1.15,2013-07-20 09:35:00,
2013-07-20 05:40:00,69.5,68.9,29.88,N/A,-737280,0.0,-999.0,98,0.00,,,0.11,Wunderground v.1.15,2013-07-20 09:40:00,
2013-07-20 05:45:00,69.8,69.2,29.89,SSE,158,0.0,-999.0,98,0.00,,,0.11,Wunderground v.1.15,2013-07-20 09:45:00,
2013-07-20 05:50:00,70.1,69.5,29.89,ESE,113,0.0,-999.0,98,0.00,,,0.11,Wunderground v.1.15,2013-07-20 09:50:00,
2013-07-20 05:55:00,70.5,70.2,29.90,SE,135,3.0,-999.0,99,0.00,,,0.11,Wunderground v.1.15,2013-07-20 09:55:00,
2013-07-20 06:00:00,70.9,70.6,29.91,SSW,203,2.0,-999.0,99,0.00,,,0.11,Wunderground v.1.15,2013-07-20 10:00:00,
2013-07-20 06:05:00,71.0,70.4,29.90,South,180,2.0,-999.0,98,0.00,,,0.11,Wunderground v.1.15,2013-07-20 10:05:00,
2013-07-20 06:10:00,71.1,70.5,29.90,WNW,293,1.0,-999.0,98,0.00,,,0.11,Wunderground v.1.15,2013-07-20 10:10:00,
2013-07-20 06:15:00,71.1,70.2,29.90,East,90,0.0,-999.0,97,0.00,,,0.11,Wunderground v.1.15,2013-07-20 10:15:00,
2013-07-20 06:20:00,71.1,69.9,29.90,East,90,0.0,-999.0,96,0.00,,,0.11,Wunderground v.1.15,2013-07-20 10:20:00,
2013-07-20 06:25:00,71.0,69.8,29.91,N/A,-737280,0.0,-999.0,96,0.00,,,0.11,Wunderground v.1.15,2013-07-20 10:25:00,
2013-07-20 06:30:00,70.9,69.7,29.92,WSW,248,0.0,-999.0,96,0.00,,,0.11,Wunderground v.1.15,2013-07-20 10:30:00,
2013-07-20 06:35:00,70.7,69.2,29.92,SW,225,0.0,-999.0,95,0.00,,,0.11,Wunderground v.1.15,2013-07-20 10:35:00,
2013-07-20 06:40:00,70.4,69.2,29.92,SW,225,1.0,-999.0,96,0.00,,,0.11,Wunderground v.1.15,2013-07-20 10:40:00,
2013-07-20 06:45:00,70.1,68.9,29.91,WSW,248,0.0,-999.0,96,0.00,,,0.11,Wunderground v.1.15,2013-07-20 10:45:00,
2013-07-20 06:50:00,69.9,68.7,29.91,N/A,-737280,0.0,-999.0,96,0.00,,,0.11,Wunderground v.1.15,2013-07-20 10:50:00,
2013-07-20 06:55:00,69.9,69.0,29.90,N/A,-737280,0.0,-999.0,97,0.00,,,0.11,Wunderground v.1.15,2013-07-20 10:55:00,
2013-07-20 07:00:00,69.9,69.0,29.90,N/A,-737280,0.0,-999.0,97,0.00,,,0.11,Wunderground v.1.15,2013-07-20 11:00:00,
2013-07-20 07:05:00,69.9,69.0,29.91,N/A,-737280,0.0,-999.0,97,0.00,,,0.11,Wunderground v.1.15,2013-07-20 11:05:00,
2013-07-20 07:10:00,70.0,69.1,29.91,N/A,-737280,0.0,-999.0,97,0.00,,,0.11,Wunderground v.1.15,2013-07-20 11:10:00,
2013-07-20 07:15:00,70.1,69.2,29.91,N/A,-737280,0.0,-999.0,97,0.00,,,0.11,Wunderground v.1.15,2013-07-20 11:15:00,
2013-07-20 07:20:00,70.2,69.3,29.92,N/A,-737280,0.0,-999.0,97,0.00,,,0.11,Wunderground v.1.15,2013-07-20 11:20:00,
2013-07-20 07:25:00,70.2,69.3,29.92,SSW,203,1.0,-999.0,97,0.00,,,0.11,Wunderground v.1.15,2013-07-20 11:25:00,
2013-07-20 07:30:00,70.3,69.4,29.94,WSW,248,1.0,-999.0,97,0.00,,,0.11,Wunderground v.1.15,2013-07-20 11:30:00,
2013-07-20 07:35:00,70.5,69.3,29.94,N/A,-737280,0.0,-999.0,96,0.00,,,0.11,Wunderground v.1.15,2013-07-20 11:35:00,
2013-07-20 07:40:00,70.5,69.0,29.95,SSE,158,1.0,-999.0,95,0.00,,,0.11,Wunderground v.1.15,2013-07-20 11:40:00,
2013-07-20 07:45:00,70.5,69.0,29.95,SE,135,1.0,-999.0,95,0.00,,,0.11,Wunderground v.1.15,2013-07-20 11:45:00,
2013-07-20 07:50:00,70.8,69.0,29.95,WSW,248,1.0,-999.0,94,0.00,,,0.11,Wunderground v.1.15,2013-07-20 11:50:00,
2013-07-20 17:21:00,78.6,72.3,29.90,WSW,243,4.0,4.0,81,0.00,,,0.11,Wunderground v.1.15,2013-07-20 21:21:00,
2013-07-20 17:45:00,77.8,71.5,29.90,SSW,208,3.0,5.0,81,0.00,,,0.11,Wunderground v.1.15,2013-07-20 21:45:00,
2013-07-20 17:50:00,77.7,71.8,29.90,WSW,245,4.0,5.0,82,0.00,,,0.11,Wunderground v.1.15,2013-07-20 21:50:00,
2013-07-20 19:15:00,76.4,71.6,29.90,SSW,205,3.0,10.0,85,0.00,,,0.11,Wunderground v.1.15,2013-07-20 23:15:00,
2013-07-20 19:20:00,76.3,71.5,29.89,SW,236,4.0,10.0,85,0.00,,,0.11,Wunderground v.1.15,2013-07-20 23:20:00,
2013-07-20 19:30:00,76.2,71.7,29.90,WSW,257,3.0,10.0,86,0.00,,,0.11,Wunderground v.1.15,2013-07-20 23:30:00,
2013-07-20 19:35:00,76.2,71.7,29.90,SW,214,2.0,10.0,86,0.00,,,0.11,Wunderground v.1.15,2013-07-20 23:35:00,
2013-07-20 19:45:00,75.9,71.8,29.90,SSW,198,3.0,10.0,87,0.00,,,0.11,Wunderground v.1.15,2013-07-20 23:45:00,
2013-07-20 19:50:00,75.7,71.6,29.90,South,184,3.0,10.0,87,0.00,,,0.11,Wunderground v.1.15,2013-07-20 23:50:00,
2013-07-20 19:55:00,75.6,71.8,29.90,SW,214,3.0,3.0,88,0.00,,,0.11,Wunderground v.1.15,2013-07-20 23:55:00,
2013-07-20 20:00:00,75.4,71.6,29.90,SW,218,3.0,3.0,88,0.00,,,0.11,Wunderground v.1.15,2013-07-21 00:00:00,
2013-07-20 20:40:00,73.6,70.8,29.90,SSW,210,0.0,1.0,91,0.00,,,0.11,Wunderground v.1.15,2013-07-21 00:40:00,
2013-07-20 20:50:00,73.2,70.7,29.90,SW,225,0.0,1.0,92,0.00,,,0.11,Wunderground v.1.15,2013-07-21 00:50:00,
2013-07-20 20:55:00,72.8,70.7,29.90,SW,217,1.0,1.0,93,0.00,,,0.11,Wunderground v.1.15,2013-07-21 00:55:00,
2013-07-20 21:00:00,72.4,70.6,29.91,SW,217,1.0,1.0,94,0.00,,,0.11,Wunderground v.1.15,2013-07-21 01:00:00,
2013-07-20 21:10:00,71.8,70.0,29.91,SW,217,0.0,0.0,94,0.00,,,0.11,Wunderground v.1.15,2013-07-21 01:10:00,
2013-07-20 21:15:00,71.5,70.0,29.91,SW,217,0.0,0.0,95,0.00,,,0.11,Wunderground v.1.15,2013-07-21 01:15:00,
2013-07-20 21:30:00,71.1,69.9,29.91,SW,215,0.0,0.0,96,0.00,,,0.11,Wunderground v.1.15,2013-07-21 01:30:00,
2013-07-20 21:35:00,70.9,69.7,29.91,SSW,197,0.0,0.0,96,0.00,,,0.11,Wunderground v.1.15,2013-07-21 01:35:00,
2013-07-20 21:45:00,70.6,69.4,29.92,SSW,197,0.0,0.0,96,0.00,,,0.11,Wunderground v.1.15,2013-07-21 01:45:00,
2013-07-20 21:50:00,70.5,69.6,29.92,SSW,197,0.0,0.0,97,0.00,,,0.11,Wunderground v.1.15,2013-07-21 01:50:00,
2013-07-20 21:55:00,70.3,69.4,29.93,SSW,198,0.0,0.0,97,0.00,,,0.11,Wunderground v.1.15,2013-07-21 01:55:00,
2013-07-20 22:05:00,70.1,69.2,29.93,SSW,198,0.0,0.0,97,0.00,,,0.11,Wunderground v.1.15,2013-07-21 02:05:00,
2013-07-20 22:15:00,69.9,69.0,29.93,SSW,197,0.0,0.0,97,0.00,,,0.11,Wunderground v.1.15,2013-07-21 02:15:00,
2013-07-20 22:20:00,69.8,68.9,29.94,SSW,198,0.0,0.0,97,0.00,,,0.11,Wunderground v.1.15,2013-07-21 02:20:00,
2013-07-20 22:25:00,69.7,68.8,29.93,SSW,198,0.0,0.0,97,0.00,,,0.11,Wunderground v.1.15,2013-07-21 02:25:00,
2013-07-20 22:30:00,69.8,69.2,29.94,SSW,198,0.0,0.0,98,0.00,,,0.11,Wunderground v.1.15,2013-07-21 02:30:00,
2013-07-20 22:40:00,69.9,69.3,29.94,SSW,198,0.0,0.0,98,0.00,,,0.11,Wunderground v.1.15,2013-07-21 02:40:00,
2013-07-20 22:45:00,70.0,69.4,29.94,SSW,198,0.0,0.0,98,0.00,,,0.11,Wunderground v.1.15,2013-07-21 02:45:00,
2013-07-20 22:50:00,70.0,69.4,29.94,SSW,197,0.0,0.0,98,0.00,,,0.11,Wunderground v.1.15,2013-07-21 02:50:00,
2013-07-20 22:55:00,69.9,69.3,29.94,SSW,198,0.0,0.0,98,0.00,,,0.11,Wunderground v.1.15,2013-07-21 02:55:00,
2013-07-20 23:05:00,70.0,69.4,29.94,SSW,200,0.0,0.0,98,0.00,,,0.11,Wunderground v.1.15,2013-07-21 03:05:00,
2013-07-20 23:15:00,70.2,69.6,29.94,SW,231,0.0,0.0,98,0.00,,,0.11,Wunderground v.1.15,2013-07-21 03:15:00,
2013-07-20 23:20:00,70.1,69.5,29.94,SW,231,0.0,0.0,98,0.00,,,0.11,Wunderground v.1.15,2013-07-21 03:20:00,
2013-07-20 23:25:00,70.0,69.4,29.95,SW,231,0.0,0.0,98,0.00,,,0.11,Wunderground v.1.15,2013-07-21 03:25:00,
2013-07-20 23:30:00,69.8,69.2,29.94,SW,230,0.0,0.0,98,0.00,,,0.11,Wunderground v.1.15,2013-07-21 03:30:00,
2013-07-20 23:35:00,69.8,69.2,29.94,SW,230,0.0,0.0,98,0.00,,,0.11,Wunderground v.1.15,2013-07-21 03:35:00,
2013-07-20 23:45:00,69.9,69.3,29.94,SW,230,0.0,0.0,98,0.00,,,0.11,Wunderground v.1.15,2013-07-21 03:45:00,
2013-07-20 23:55:00,69.6,69.0,29.94,SW,231,0.0,0.0,98,0.00,,,0.11,Wunderground v.1.15,2013-07-21 03:55:00,